createdAt,value
2023-02-02T00:02:04.495Z,100549.69
2023-02-02T00:04:36.337Z,100553.03
2023-02-02T00:07:05.651Z,100552.44
2023-02-02T00:09:34.137Z,100544.63
2023-02-02T00:12:02.914Z,100558.75
2023-02-02T00:14:31.304Z,100561.31
2023-02-02T00:17:00.594Z,100552.59
2023-02-02T00:19:31.603Z,100563.19
2023-02-02T00:21:59.568Z,100553.59
2023-02-02T00:24:27.464Z,100549.84
2023-02-02T00:26:57.420Z,100546.34
2023-02-02T00:29:26.896Z,100525.44
2023-02-02T00:31:54.990Z,100536.22
2023-02-02T00:34:25.205Z,100538.66
2023-02-02T00:36:53.533Z,100528.50
2023-02-02T00:39:26.455Z,100530.72
2023-02-02T00:41:55.790Z,100540.81
2023-02-02T00:44:41.412Z,100533.09
2023-02-02T00:47:09.322Z,100526.88
2023-02-02T00:49:39.420Z,100514.84
2023-02-02T00:52:07.359Z,100507.56
2023-02-02T00:54:35.288Z,100529.53
2023-02-02T00:57:03.721Z,100524.44
2023-02-02T00:59:32.490Z,100535.22
2023-02-02T01:02:02.084Z,100525.41
2023-02-02T01:04:30.379Z,100535.56
2023-02-02T01:06:59.852Z,100549.16
2023-02-02T01:09:27.851Z,100555.16
2023-02-02T01:11:55.922Z,100560.88
2023-02-02T01:14:24.197Z,100570.72
2023-02-02T01:16:52.091Z,100559.69
2023-02-02T01:19:20.039Z,100558.13
2023-02-02T01:21:47.933Z,100544.34
2023-02-02T01:24:17.204Z,100565.25
2023-02-02T01:26:45.153Z,100572.00
2023-02-02T01:29:13.246Z,100567.16
2023-02-02T01:31:42.211Z,100573.81
2023-02-02T01:34:11.426Z,100573.59
2023-02-02T01:36:39.341Z,100575.19
2023-02-02T01:39:07.220Z,100576.44
2023-02-02T01:41:36.542Z,100562.84
2023-02-02T01:44:06.218Z,100544.72
2023-02-02T01:46:36.105Z,100563.47
2023-02-02T01:49:09.100Z,100556.06
2023-02-02T01:51:42.984Z,100561.13
2023-02-02T01:54:15.953Z,100559.47
2023-02-02T01:56:54.884Z,100563.47
2023-02-02T01:59:23.661Z,100571.28
2023-02-02T02:01:54.883Z,100576.06
2023-02-02T02:04:25.156Z,100581.06
2023-02-02T02:06:54.217Z,100583.44
2023-02-02T02:09:22.504Z,100584.72
2023-02-02T02:11:54.205Z,100590.28
2023-02-02T02:14:41.195Z,100589.47
2023-02-02T02:17:20.205Z,100585.22
2023-02-02T02:20:51.246Z,100598.25
2023-02-02T02:24:17.160Z,100582.47
2023-02-02T02:26:58.556Z,100580.56
2023-02-02T02:30:10.715Z,100588.69
2023-02-02T02:32:46.665Z,100594.91
2023-02-02T02:35:24.593Z,100589.72
2023-02-02T02:37:59.590Z,100588.47
2023-02-02T02:40:35.397Z,100603.09
2023-02-02T02:43:08.970Z,100603.06
2023-02-02T02:45:39.777Z,100613.94
2023-02-02T02:48:11.399Z,100635.41
2023-02-02T02:50:39.709Z,100611.25
2023-02-02T02:53:14.290Z,100620.69
2023-02-02T02:55:50.373Z,100609.34
2023-02-02T02:58:25.182Z,100610.13
2023-02-02T03:01:04.438Z,100623.19
2023-02-02T03:03:49.244Z,100630.56
2023-02-02T03:06:24.362Z,100615.81
2023-02-02T03:08:57.258Z,100619.00
2023-02-02T03:11:25.202Z,100615.63
2023-02-02T03:13:53.322Z,100635.88
2023-02-02T03:16:21.163Z,100633.69
2023-02-02T03:18:50.489Z,100631.63
2023-02-02T03:21:18.347Z,100655.47
2023-02-02T03:23:46.206Z,100650.88
2023-02-02T03:26:14.108Z,100658.91
2023-02-02T03:28:42.736Z,100668.59
2023-02-02T03:31:10.928Z,100670.97
2023-02-02T03:33:39.594Z,100692.16
2023-02-02T03:36:09.725Z,100686.16
2023-02-02T03:38:37.662Z,100683.16
2023-02-02T03:41:06.572Z,100678.81
2023-02-02T03:43:34.410Z,100700.16
2023-02-02T03:46:05.232Z,100709.38
2023-02-02T03:48:36.157Z,100707.19
2023-02-02T03:51:08.677Z,100712.72
2023-02-02T03:53:36.586Z,100718.91
2023-02-02T03:56:05.158Z,100713.22
2023-02-02T03:58:33.085Z,100715.13
2023-02-02T04:01:04.143Z,100718.63
2023-02-02T04:03:32.147Z,100731.72
2023-02-02T04:06:00.108Z,100729.25
2023-02-02T04:08:30.247Z,100747.47
2023-02-02T04:10:59.540Z,100751.19
2023-02-02T04:13:27.509Z,100752.91
2023-02-02T04:15:59.537Z,100741.91
2023-02-02T04:18:27.870Z,100759.16
2023-02-02T04:20:59.420Z,100746.03
2023-02-02T04:23:29.763Z,100763.28
2023-02-02T04:25:58.573Z,100782.31
2023-02-02T04:28:27.405Z,100775.53
2023-02-02T04:30:56.382Z,100788.41
2023-02-02T04:33:26.442Z,100788.94
2023-02-02T04:35:54.350Z,100787.91
2023-02-02T04:38:22.314Z,100784.72
2023-02-02T04:40:51.639Z,100798.94
2023-02-02T04:43:19.576Z,100810.78
2023-02-02T04:45:47.526Z,100810.63
2023-02-02T04:48:15.364Z,100816.69
2023-02-02T04:50:43.184Z,100824.00
2023-02-02T04:53:11.063Z,100811.38
2023-02-02T04:55:39.137Z,100821.06
2023-02-02T04:58:08.427Z,100830.19
2023-02-02T05:00:36.295Z,100831.59
2023-02-02T05:03:04.256Z,100828.66
2023-02-02T05:05:32.118Z,100842.03
2023-02-02T05:07:59.989Z,100857.22
2023-02-02T05:10:27.864Z,100852.97
2023-02-02T05:12:56.307Z,100848.31
2023-02-02T05:15:25.874Z,100859.78
2023-02-02T05:17:53.888Z,100864.16
2023-02-02T05:20:21.748Z,100856.19
2023-02-02T05:22:50.087Z,100871.28
2023-02-02T05:25:18.548Z,100883.63
2023-02-02T05:27:47.287Z,100895.22
2023-02-02T05:30:15.956Z,100893.16
2023-02-02T05:32:45.189Z,100885.75
2023-02-02T05:35:13.075Z,100904.03
2023-02-02T05:37:43.111Z,100902.03
2023-02-02T05:40:12.127Z,100911.75
2023-02-02T05:42:40.039Z,100906.25
2023-02-02T05:45:08.687Z,100910.31
2023-02-02T05:47:36.637Z,100910.81
2023-02-02T05:50:06.455Z,100917.16
2023-02-02T05:52:36.645Z,100923.44
2023-02-02T05:55:05.216Z,100919.53
2023-02-02T05:57:33.884Z,100920.16
2023-02-02T06:00:01.826Z,100928.22
2023-02-02T06:02:39.971Z,100928.16
2023-02-02T06:05:10.013Z,100932.00
2023-02-02T06:07:37.937Z,100935.84
2023-02-02T06:10:06.528Z,100942.25
2023-02-02T06:12:34.405Z,100946.28
2023-02-02T06:15:02.359Z,100950.44
2023-02-02T06:17:30.330Z,100952.31
2023-02-02T06:19:58.196Z,100955.34
2023-02-02T06:22:27.489Z,100967.41
2023-02-02T06:24:55.385Z,100976.25
2023-02-02T06:27:23.476Z,100973.59
2023-02-02T06:29:51.537Z,100978.16
2023-02-02T06:32:19.426Z,100974.34
2023-02-02T06:34:47.390Z,100984.25
2023-02-02T06:37:15.279Z,100985.72
2023-02-02T06:39:44.489Z,100996.59
2023-02-02T06:42:21.408Z,101000.84
2023-02-02T06:44:49.895Z,101000.84
2023-02-02T06:47:17.953Z,101004.63
2023-02-02T06:49:45.797Z,101004.09
2023-02-02T06:52:13.627Z,101007.59
2023-02-02T06:54:41.597Z,101016.63
2023-02-02T06:57:11.009Z,101022.91
2023-02-02T06:59:40.974Z,101025.28
2023-02-02T07:02:12.172Z,101033.34
2023-02-02T07:04:40.088Z,101038.25
2023-02-02T07:07:07.956Z,101029.72
2023-02-02T07:09:36.336Z,101039.88
2023-02-02T07:12:04.378Z,101043.13
2023-02-02T07:14:33.695Z,101045.41
2023-02-02T07:17:01.644Z,101059.53
2023-02-02T07:19:29.766Z,101068.72
2023-02-02T07:21:57.720Z,101066.69
2023-02-02T07:24:25.589Z,101073.53
2023-02-02T07:26:53.534Z,101087.72
2023-02-02T07:29:21.667Z,101089.16
2023-02-02T07:31:51.080Z,101097.09
2023-02-02T07:34:19.243Z,101084.47
2023-02-02T07:36:47.139Z,101106.06
2023-02-02T07:39:15.352Z,101098.44
2023-02-02T07:41:43.896Z,101091.72
2023-02-02T07:44:24.457Z,101093.28
2023-02-02T07:46:54.258Z,101097.41
2023-02-02T07:49:22.171Z,101105.22
2023-02-02T07:51:50.125Z,101106.00
2023-02-02T07:54:18.071Z,101105.47
2023-02-02T07:56:46.028Z,101118.09
2023-02-02T07:59:14.267Z,101117.75
2023-02-02T08:01:42.217Z,101122.34
2023-02-02T08:04:11.670Z,101128.41
2023-02-02T08:06:41.320Z,101142.44
2023-02-02T08:09:10.761Z,101126.97
2023-02-02T08:11:39.833Z,101138.00
2023-02-02T08:14:08.348Z,101140.03
2023-02-02T08:16:36.268Z,101142.25
2023-02-02T08:19:04.530Z,101147.59
2023-02-02T08:21:35.357Z,101156.16
2023-02-02T08:24:05.173Z,101166.78
2023-02-02T08:26:33.377Z,101167.75
2023-02-02T08:29:03.039Z,101155.47
2023-02-02T08:31:32.997Z,101175.13
2023-02-02T08:34:01.000Z,101167.75
2023-02-02T08:36:30.734Z,101168.22
2023-02-02T08:39:03.392Z,101165.66
2023-02-02T08:41:31.599Z,101176.66
2023-02-02T08:43:59.763Z,101166.22
2023-02-02T08:46:28.030Z,101173.09
2023-02-02T08:48:55.936Z,101170.84
2023-02-02T08:51:23.854Z,101176.13
2023-02-02T08:53:51.753Z,101176.41
2023-02-02T08:56:22.947Z,101179.91
2023-02-02T08:58:52.949Z,101185.41
2023-02-02T09:01:22.675Z,101190.31
2023-02-02T09:03:54.630Z,101189.88
2023-02-02T09:06:23.620Z,101181.97
2023-02-02T09:08:51.494Z,101181.13
2023-02-02T09:11:21.763Z,101196.50
2023-02-02T09:13:50.863Z,101195.25
2023-02-02T09:16:20.039Z,101202.16
2023-02-02T09:18:48.155Z,101202.72
2023-02-02T09:21:17.574Z,101205.25
2023-02-02T09:23:46.696Z,101202.81
2023-02-02T09:26:17.802Z,101208.78
2023-02-02T09:28:49.145Z,101217.38
2023-02-02T09:31:17.540Z,101231.25
2023-02-02T09:33:45.939Z,101223.28
2023-02-02T09:36:15.790Z,101238.88
2023-02-02T09:38:44.899Z,101225.00
2023-02-02T09:41:43.294Z,101241.19
2023-02-02T09:44:24.215Z,101249.72
2023-02-02T09:47:04.440Z,101252.69
2023-02-02T09:49:38.474Z,101249.56
2023-02-02T09:52:14.867Z,101244.91
2023-02-02T09:54:45.920Z,101244.91
2023-02-02T09:57:19.141Z,101259.19
2023-02-02T09:59:51.989Z,101258.16
2023-02-02T10:02:23.530Z,101246.97
2023-02-02T10:04:53.655Z,101248.25
2023-02-02T10:07:27.703Z,101261.75
2023-02-02T10:10:00.680Z,101261.47
2023-02-02T10:12:37.179Z,101251.66
2023-02-02T10:15:17.742Z,101250.88
2023-02-02T10:17:50.729Z,101261.47
2023-02-02T10:20:39.818Z,101265.47
2023-02-02T10:23:22.894Z,101271.25
2023-02-02T10:25:57.672Z,101265.28
2023-02-02T10:28:43.460Z,101259.09
2023-02-02T10:31:23.360Z,101278.41
2023-02-02T10:34:03.628Z,101278.59
2023-02-02T10:36:41.040Z,101273.56
2023-02-02T10:39:18.347Z,101266.50
2023-02-02T10:41:53.021Z,101274.13
2023-02-02T10:44:31.549Z,101284.00
2023-02-02T10:47:04.953Z,101259.59
2023-02-02T10:49:35.417Z,101274.88
2023-02-02T10:52:15.758Z,101269.91
2023-02-02T10:54:57.636Z,101278.94
2023-02-02T10:57:35.676Z,101280.81
2023-02-02T11:00:12.198Z,101272.22
2023-02-02T11:02:41.454Z,101295.53
2023-02-02T11:05:34.324Z,101305.28
2023-02-02T11:08:02.804Z,101298.66
2023-02-02T11:10:33.412Z,101305.69
2023-02-02T11:13:02.730Z,101317.38
2023-02-02T11:15:32.012Z,101307.84
2023-02-02T11:18:15.888Z,101306.44
2023-02-02T11:20:46.532Z,101299.25
2023-02-02T11:23:20.200Z,101316.47
2023-02-02T11:25:58.940Z,101314.69
2023-02-02T11:28:30.428Z,101318.28
2023-02-02T11:30:59.305Z,101329.97
2023-02-02T11:33:31.717Z,101318.28
2023-02-02T11:36:01.865Z,101319.28
2023-02-02T11:38:32.033Z,101329.59
2023-02-02T11:41:03.864Z,101335.13
2023-02-02T11:43:40.863Z,101327.94
2023-02-02T11:46:19.826Z,101330.59
2023-02-02T11:48:59.662Z,101334.19
2023-02-02T11:51:29.622Z,101333.19
2023-02-02T11:54:06.196Z,101346.69
2023-02-02T11:56:35.609Z,101353.47
2023-02-02T11:59:04.183Z,101351.22
2023-02-02T12:01:35.537Z,101354.56
2023-02-02T12:04:24.433Z,101358.69
2023-02-02T12:06:52.348Z,101376.34
2023-02-02T12:09:23.266Z,101376.09
2023-02-02T12:12:02.301Z,101382.97
2023-02-02T12:14:38.451Z,101407.25
2023-02-02T12:17:20.799Z,101410.72
2023-02-02T12:20:13.794Z,101452.13
2023-02-02T12:23:08.552Z,101436.97
2023-02-02T12:25:54.919Z,101466.03
2023-02-02T12:28:39.692Z,101450.38
2023-02-02T12:31:16.373Z,101448.19
2023-02-02T12:33:52.271Z,101442.06
2023-02-02T12:36:37.347Z,101440.06
2023-02-02T12:39:21.153Z,101419.22
2023-02-02T12:42:18.413Z,101418.63
2023-02-02T12:44:57.452Z,101421.84
2023-02-02T12:47:29.023Z,101428.34
2023-02-02T12:50:09.862Z,101438.41
2023-02-02T12:52:53.716Z,101434.50
2023-02-02T12:55:27.716Z,101442.66
2023-02-02T12:58:07.540Z,101437.84
2023-02-02T13:00:52.029Z,101431.41
2023-02-02T13:03:29.581Z,101427.78
2023-02-02T13:06:10.628Z,101423.41
2023-02-02T13:08:48.672Z,101436.00
2023-02-02T13:11:32.832Z,101434.69
2023-02-02T13:14:06.683Z,101435.41
2023-02-02T13:16:38.110Z,101451.31
2023-02-02T13:19:09.321Z,101459.16
2023-02-02T13:21:39.646Z,101472.06
2023-02-02T13:24:16.542Z,101470.59
2023-02-02T13:26:48.630Z,101475.19
2023-02-02T13:29:33.398Z,101482.31
2023-02-02T13:32:05.848Z,101489.03
2023-02-02T13:34:42.444Z,101493.44
2023-02-02T13:37:18.735Z,101500.06
2023-02-02T13:39:57.452Z,101500.59
2023-02-02T13:42:38.193Z,101507.31
2023-02-02T13:45:22.966Z,101506.28
2023-02-02T13:47:57.334Z,101511.28
2023-02-02T13:50:30.415Z,101517.81
2023-02-02T13:53:14.392Z,101519.72
2023-02-02T13:56:06.649Z,101521.94
2023-02-02T13:58:51.818Z,101533.81
2023-02-02T14:01:20.873Z,101542.56
2023-02-02T14:03:54.391Z,101546.97
2023-02-02T14:06:24.408Z,101543.72
2023-02-02T14:08:55.437Z,101552.59
2023-02-02T14:11:29.201Z,101548.13
2023-02-02T14:14:19.383Z,101553.69
2023-02-02T14:16:50.479Z,101566.25
2023-02-02T14:19:44.050Z,101573.94
2023-02-02T14:22:39.028Z,101570.41
2023-02-02T14:25:41.573Z,101584.00
2023-02-02T14:28:12.452Z,101585.69
2023-02-02T14:30:41.288Z,101587.28
2023-02-02T14:33:39.939Z,101608.34
2023-02-02T14:36:15.181Z,101612.03
2023-02-02T14:38:59.246Z,101605.44
2023-02-02T14:42:12.746Z,101628.44
2023-02-02T14:45:17.095Z,101633.38
2023-02-02T14:47:51.040Z,101638.88
2023-02-02T14:50:24.397Z,101653.25
2023-02-02T14:53:03.450Z,101649.84
2023-02-02T14:55:33.343Z,101656.09
2023-02-02T14:58:03.608Z,101661.63
2023-02-02T15:00:33.989Z,101664.59
2023-02-02T15:03:48.245Z,101675.47
2023-02-02T15:06:32.934Z,101682.56
2023-02-02T15:09:36.770Z,101682.66
2023-02-02T15:12:43.568Z,101692.88
2023-02-02T15:15:18.428Z,101702.25
2023-02-02T15:17:55.897Z,101700.69
2023-02-02T15:20:30.364Z,101705.84
2023-02-02T15:23:01.952Z,101713.06
2023-02-02T15:25:35.315Z,101716.78
2023-02-02T15:28:08.849Z,101731.88
2023-02-02T15:30:41.092Z,101728.91
2023-02-02T15:33:21.716Z,101740.56
2023-02-02T15:35:50.170Z,101740.06
2023-02-02T15:38:20.972Z,101744.09
2023-02-02T15:40:49.758Z,101744.75
2023-02-02T15:43:19.501Z,101749.44
2023-02-02T15:45:50.673Z,101760.19
2023-02-02T15:48:22.488Z,101767.09
2023-02-02T15:50:54.656Z,101775.88
2023-02-02T15:53:25.665Z,101774.56
2023-02-02T15:55:54.465Z,101781.94
2023-02-02T15:58:32.693Z,101785.69
2023-02-02T16:01:04.269Z,101787.69
2023-02-02T16:03:39.560Z,101798.75
2023-02-02T16:06:08.980Z,101807.38
2023-02-02T16:08:39.998Z,101820.56
2023-02-02T16:11:11.304Z,101818.41
2023-02-02T16:13:42.269Z,101821.91
2023-02-02T16:16:23.897Z,101837.41
2023-02-02T16:19:03.344Z,101835.56
2023-02-02T16:21:32.557Z,101845.63
2023-02-02T16:24:01.687Z,101838.34
2023-02-02T16:26:32.638Z,101853.31
2023-02-02T16:29:02.564Z,101861.53
2023-02-02T16:31:31.457Z,101875.09
2023-02-02T16:34:02.414Z,101877.94
2023-02-02T16:36:31.122Z,101879.34
2023-02-02T16:39:01.348Z,101888.78
2023-02-02T16:41:34.724Z,101900.28
2023-02-02T16:44:38.602Z,101893.69
2023-02-02T16:47:08.429Z,101897.44
2023-02-02T16:49:37.720Z,101905.13
2023-02-02T16:52:15.305Z,101911.09
2023-02-02T16:54:51.088Z,101909.00
2023-02-02T16:57:22.659Z,101918.81
2023-02-02T16:59:54.771Z,101913.38
2023-02-02T17:02:29.762Z,101917.22
2023-02-02T17:05:01.843Z,101926.53
2023-02-02T17:07:31.068Z,101927.91
2023-02-02T17:10:21.378Z,101937.09
2023-02-02T17:12:49.581Z,101945.19
2023-02-02T17:15:34.400Z,101945.03
2023-02-02T17:18:03.276Z,101949.72
2023-02-02T17:20:32.509Z,101958.03
2023-02-02T17:23:03.575Z,101960.06
2023-02-02T17:25:37.030Z,101956.09
2023-02-02T17:28:08.568Z,101954.75
2023-02-02T17:30:40.482Z,101960.22
2023-02-02T17:33:14.672Z,101966.56
2023-02-02T17:35:53.873Z,101978.69
2023-02-02T17:38:23.021Z,101980.41
2023-02-02T17:40:51.836Z,101983.63
2023-02-02T17:43:19.832Z,101987.28
2023-02-02T17:45:49.222Z,101999.38
2023-02-02T17:48:17.362Z,101999.88
2023-02-02T17:50:47.069Z,101999.41
2023-02-02T17:53:16.532Z,102001.25
2023-02-02T17:55:45.676Z,102015.25
2023-02-02T17:58:17.216Z,102015.00
2023-02-02T18:00:46.492Z,102008.09
2023-02-02T18:03:21.008Z,102009.78
2023-02-02T18:05:49.333Z,102010.66
2023-02-02T18:08:17.622Z,102009.94
2023-02-02T18:10:45.739Z,102007.22
2023-02-02T18:13:15.924Z,102007.88
2023-02-02T18:15:44.736Z,102014.25
2023-02-02T18:18:12.913Z,102007.94
2023-02-02T18:20:43.887Z,102007.13
2023-02-02T18:23:11.833Z,102013.00
2023-02-02T18:25:40.569Z,102012.13
2023-02-02T18:28:09.521Z,102014.09
2023-02-02T18:30:39.219Z,102019.09
2023-02-02T18:33:08.706Z,102020.78
2023-02-02T18:35:36.729Z,102017.31
2023-02-02T18:38:05.979Z,102022.31
2023-02-02T18:40:33.898Z,102019.75
2023-02-02T18:43:01.894Z,102016.84
2023-02-02T18:45:29.914Z,102016.91
2023-02-02T18:47:58.183Z,102017.03
2023-02-02T18:50:26.083Z,102007.44
2023-02-02T18:52:54.208Z,102003.34
2023-02-02T18:55:23.636Z,102002.72
2023-02-02T18:57:51.692Z,102011.59
2023-02-02T19:00:22.012Z,102017.91
2023-02-02T19:02:49.976Z,102017.66
2023-02-02T19:05:35.980Z,102016.28
2023-02-02T19:08:05.815Z,102016.16
2023-02-02T19:10:35.142Z,102020.22
2023-02-02T19:13:13.351Z,102015.66
2023-02-02T19:15:42.433Z,102018.47
2023-02-02T19:18:15.054Z,102010.50
2023-02-02T19:20:43.632Z,102019.69
2023-02-02T19:23:13.533Z,102024.03
2023-02-02T19:25:46.275Z,102021.69
2023-02-02T19:28:22.602Z,102032.75
2023-02-02T19:30:51.711Z,102026.06
2023-02-02T19:33:20.039Z,102034.84
2023-02-02T19:35:51.671Z,102043.97
2023-02-02T19:38:30.500Z,102044.06
2023-02-02T19:41:02.307Z,102037.16
2023-02-02T19:43:33.119Z,102037.78
2023-02-02T19:46:01.404Z,102033.50
2023-02-02T19:48:35.535Z,102040.53
2023-02-02T19:51:38.431Z,102043.56
2023-02-02T19:54:18.229Z,102049.91
2023-02-02T19:56:47.538Z,102041.94
2023-02-02T19:59:19.465Z,102040.03
2023-02-02T20:01:50.570Z,102044.19
2023-02-02T20:04:20.006Z,102047.03
2023-02-02T20:06:58.498Z,102044.53
2023-02-02T20:09:34.544Z,102047.72
2023-02-02T20:12:18.880Z,102042.69
2023-02-02T20:14:48.859Z,102049.59
2023-02-02T20:17:23.918Z,102050.88
2023-02-02T20:19:51.859Z,102047.97
2023-02-02T20:22:25.807Z,102053.53
2023-02-02T20:24:54.807Z,102054.81
2023-02-02T20:27:26.726Z,102043.22
2023-02-02T20:29:56.532Z,102044.19
2023-02-02T20:32:30.078Z,102041.59
2023-02-02T20:34:59.706Z,102040.41
2023-02-02T20:37:30.111Z,102032.66
2023-02-02T20:40:01.130Z,102043.75
2023-02-02T20:42:31.193Z,102030.47
2023-02-02T20:44:59.143Z,102034.75
2023-02-02T20:47:27.017Z,102038.91
2023-02-02T20:49:57.311Z,102026.59
2023-02-02T20:52:26.282Z,102029.34
2023-02-02T20:54:54.233Z,102032.31
2023-02-02T20:57:22.120Z,102025.03
2023-02-02T20:59:57.400Z,102026.34
2023-02-02T21:02:26.500Z,102021.03
2023-02-02T21:04:54.736Z,102017.50
2023-02-02T21:07:22.889Z,102012.19
2023-02-02T21:09:52.157Z,102016.97
2023-02-02T21:12:22.306Z,102018.09
2023-02-02T21:14:51.761Z,102017.44
2023-02-02T21:17:19.709Z,102022.25
2023-02-02T21:19:48.089Z,102017.44
2023-02-02T21:22:16.196Z,102016.94
2023-02-02T21:24:44.094Z,102012.56
2023-02-02T21:27:12.045Z,102007.13
2023-02-02T21:29:40.138Z,102004.41
2023-02-02T21:32:09.406Z,102006.25
2023-02-02T21:34:38.109Z,102002.88
2023-02-02T21:37:14.084Z,102008.56
2023-02-02T21:39:48.210Z,102004.31
2023-02-02T21:42:17.973Z,101998.59
2023-02-02T21:44:49.742Z,101999.81
2023-02-02T21:47:36.121Z,101990.09
2023-02-02T21:50:15.489Z,101999.31
2023-02-02T21:52:43.757Z,101995.94
2023-02-02T21:55:33.408Z,102000.22
2023-02-02T21:58:12.108Z,102005.63
2023-02-02T22:00:40.054Z,101997.94
2023-02-02T22:03:25.937Z,101994.16
2023-02-02T22:06:00.533Z,101988.34
2023-02-02T22:08:28.497Z,101987.31
2023-02-02T22:10:56.341Z,101975.84
2023-02-02T22:13:26.595Z,101971.28
2023-02-02T22:15:54.570Z,101971.13
2023-02-02T22:18:26.131Z,101970.53
2023-02-02T22:20:56.489Z,101973.25
2023-02-02T22:23:26.385Z,101971.50
2023-02-02T22:25:57.781Z,101968.81
2023-02-02T22:28:28.272Z,101976.72
2023-02-02T22:30:58.542Z,101975.09
2023-02-02T22:33:28.019Z,101980.28
2023-02-02T22:35:55.976Z,101981.88
2023-02-02T22:38:25.484Z,101982.94
2023-02-02T22:40:54.342Z,101985.41
2023-02-02T22:43:22.775Z,101980.44
2023-02-02T22:45:50.836Z,101977.81
2023-02-02T22:48:18.840Z,101979.53
2023-02-02T22:50:48.164Z,101981.56
2023-02-02T22:53:16.017Z,101979.69
2023-02-02T22:55:44.314Z,101978.66
2023-02-02T22:58:12.259Z,101979.69
2023-02-02T23:00:40.182Z,101980.50
2023-02-02T23:03:08.126Z,101979.38
2023-02-02T23:05:35.983Z,101972.94
2023-02-02T23:08:05.565Z,101970.34
2023-02-02T23:10:35.826Z,101965.25
2023-02-02T23:13:05.860Z,101967.63
2023-02-02T23:15:33.789Z,101961.34
2023-02-02T23:18:02.147Z,101959.63
2023-02-02T23:20:30.171Z,101961.47
2023-02-02T23:22:57.989Z,101962.63
2023-02-02T23:25:27.241Z,101968.66
2023-02-02T23:27:55.209Z,101964.56
2023-02-02T23:30:24.642Z,101955.19
2023-02-02T23:32:53.049Z,101950.38
2023-02-02T23:35:20.952Z,101952.53
2023-02-02T23:37:48.941Z,101951.78
2023-02-02T23:40:17.091Z,101943.34
2023-02-02T23:42:46.389Z,101936.91
2023-02-02T23:45:16.283Z,101920.50
2023-02-02T23:47:44.715Z,101923.56
2023-02-02T23:50:13.352Z,101911.09
2023-02-02T23:52:41.575Z,101921.72
2023-02-02T23:55:11.106Z,101911.78
2023-02-02T23:57:39.453Z,101909.56
